Time;durP1;ratioP1;P1;durP2;ratioP2;P2;SDS_P1;SDS_P2;PMS_P1;PMS_P2;Temp;Humidity;BMP_temperature;BMP_pressure;BME280_temperature;BME280_humidity;BME280_pressure;Samples;Min_cycle;Max_cycle;Signal;HPM_P1;HPM_P2
2021/03/29 00:01:08;;;;;;;31.97;15.60;;;;;;;2.72;61.00;100117.05;2192590;81;21175;-84
2021/03/29 00:04:09;;;;;;;29.77;15.83;;;;;;;2.74;61.02;100124.70;2192525;81;21132;-84
2021/03/29 00:07:11;;;;;;;31.68;15.50;;;;;;;2.76;61.06;100121.13;2192539;81;21318;-84
2021/03/29 00:10:13;;;;;;;33.75;14.95;;;;;;;2.78;61.08;100121.02;2192721;81;21298;-84
2021/03/29 00:13:14;;;;;;;31.02;15.70;;;;;;;2.81;61.18;100122.11;2192879;81;21310;-84
2021/03/29 00:16:16;;;;;;;29.05;15.40;;;;;;;2.83;61.17;100122.84;2190114;81;21336;-84
2021/03/29 00:19:18;;;;;;;32.03;16.65;;;;;;;2.87;61.17;100117.86;2237098;80;21261;-83
2021/03/29 00:22:19;;;;;;;34.15;16.93;;;;;;;2.93;61.12;100125.71;2237133;80;21693;-83
2021/03/29 00:25:21;;;;;;;32.65;17.00;;;;;;;2.98;61.17;100122.35;2190326;81;21289;-83
2021/03/29 00:28:22;;;;;;;32.60;16.87;;;;;;;3.03;61.13;100127.62;2237706;79;21305;-83
2021/03/29 00:31:24;;;;;;;38.50;17.75;;;;;;;3.09;61.20;100123.79;2236897;80;21178;-84
2021/03/29 00:34:26;;;;;;;36.90;17.10;;;;;;;3.16;61.14;100124.23;2190195;81;21736;-83
2021/03/29 00:37:28;;;;;;;31.82;16.45;;;;;;;3.21;61.07;100127.38;2237512;78;21300;-84
2021/03/29 00:40:29;;;;;;;32.33;16.37;;;;;;;3.27;61.12;100132.14;2236938;80;21153;-84
2021/03/29 00:43:31;;;;;;;31.70;16.55;;;;;;;3.32;61.07;100128.34;2190228;81;21740;-84
2021/03/29 00:46:32;;;;;;;30.02;16.32;;;;;;;3.37;61.07;100129.32;2237222;79;21135;-83
2021/03/29 00:49:34;;;;;;;31.62;16.70;;;;;;;3.42;61.10;100129.86;2237123;80;21738;-84
2021/03/29 00:52:35;;;;;;;33.00;16.42;;;;;;;3.47;61.00;100127.79;2190249;81;21305;-84
2021/03/29 00:55:37;;;;;;;32.53;17.52;;;;;;;3.52;61.03;100122.33;2237204;79;21123;-84
2021/03/29 00:58:38;;;;;;;34.23;17.25;;;;;;;3.55;61.03;100128.13;2236882;80;21776;-84
2021/03/29 01:01:40;;;;;;;41.70;21.70;;;;;;;3.58;61.08;100120.64;2190315;81;21182;-83
2021/03/29 01:04:42;;;;;;;37.60;19.87;;;;;;;3.61;61.08;100119.13;2237435;79;21158;-84
2021/03/29 01:07:43;;;;;;;37.73;19.07;;;;;;;3.65;61.07;100122.70;2237111;80;21281;-84
2021/03/29 01:10:45;;;;;;;36.15;19.57;;;;;;;3.70;61.09;100118.52;2190174;81;21574;-84
2021/03/29 01:13:46;;;;;;;34.30;18.00;;;;;;;3.74;61.07;100117.84;2237071;79;21308;-83
2021/03/29 01:16:48;;;;;;;32.03;18.17;;;;;;;3.76;61.10;100118.13;2226482;80;21264;-84
2021/03/29 01:19:49;;;;;;;32.40;18.32;;;;;;;3.79;61.23;100114.49;2226112;80;21274;-83
2021/03/29 01:22:51;;;;;;;34.18;18.57;;;;;;;3.81;61.27;100108.73;2226118;80;21281;-83
2021/03/29 01:25:53;;;;;;;43.08;21.05;;;;;;;3.84;61.28;100109.38;2226308;80;21706;-84
2021/03/29 01:28:54;;;;;;;36.45;18.90;;;;;;;3.88;61.43;100106.11;2226066;80;21293;-84
2021/03/29 01:31:56;;;;;;;34.75;19.05;;;;;;;3.92;61.39;100106.25;2226422;80;21302;-84
2021/03/29 01:34:58;;;;;;;40.88;20.80;;;;;;;3.95;61.29;100108.19;2226387;80;21159;-84
2021/03/29 01:38:00;;;;;;;47.33;22.77;;;;;;;4.00;61.42;100116.46;2226097;80;21293;-83
2021/03/29 01:41:02;;;;;;;36.53;19.80;;;;;;;4.06;61.45;100118.29;2226033;80;21313;-83
2021/03/29 01:44:03;;;;;;;42.43;21.10;;;;;;;4.09;61.47;100115.48;2226055;80;21265;-83
2021/03/29 01:47:05;;;;;;;43.02;22.02;;;;;;;4.12;61.41;100121.30;2226409;80;21278;-83
2021/03/29 01:50:07;;;;;;;38.10;21.75;;;;;;;4.16;61.47;100120.15;2226050;80;21293;-84
2021/03/29 01:53:08;;;;;;;43.90;20.95;;;;;;;4.18;61.38;100120.04;2226091;80;21170;-84
2021/03/29 01:56:10;;;;;;;46.20;22.85;;;;;;;4.20;61.49;100117.70;2226169;80;21528;-84
2021/03/29 01:59:11;;;;;;;45.75;21.77;;;;;;;4.22;61.40;100112.43;2226026;80;21290;-84
2021/03/29 02:02:13;;;;;;;36.50;20.40;;;;;;;4.23;61.47;100117.51;2226201;80;21555;-84
2021/03/29 02:05:14;;;;;;;45.43;21.60;;;;;;;4.25;61.56;100119.98;2226286;80;21305;-83
2021/03/29 02:08:16;;;;;;;46.65;23.25;;;;;;;4.25;61.59;100120.81;2225971;80;21643;-83
2021/03/29 02:11:17;;;;;;;42.83;22.90;;;;;;;4.29;61.63;100125.31;2226385;80;21258;-83
2021/03/29 02:14:19;;;;;;;45.65;22.22;;;;;;;4.31;61.55;100127.83;2226288;80;21136;-83
2021/03/29 02:17:20;;;;;;;45.75;22.58;;;;;;;4.31;61.56;100126.06;2226157;80;21324;-83
2021/03/29 02:20:22;;;;;;;47.88;22.80;;;;;;;4.32;61.63;100125.13;2226302;80;21316;-83
2021/03/29 02:23:23;;;;;;;47.55;22.55;;;;;;;4.34;61.54;100126.31;2226158;80;21080;-83
2021/03/29 02:26:25;;;;;;;44.65;24.07;;;;;;;4.35;61.49;100119.72;2226077;80;21123;-84
2021/03/29 02:29:27;;;;;;;42.67;21.42;;;;;;;4.38;61.59;100119.96;2226187;80;21710;-84
2021/03/29 02:32:29;;;;;;;44.55;21.95;;;;;;;4.41;61.53;100128.37;2226124;80;21678;-84
2021/03/29 02:35:30;;;;;;;45.88;24.10;;;;;;;4.40;61.64;100125.90;2226532;80;21321;-84
2021/03/29 02:38:32;;;;;;;44.33;23.95;;;;;;;4.42;61.65;100118.37;2226444;80;21289;-84
2021/03/29 02:41:33;;;;;;;45.35;23.65;;;;;;;4.46;61.64;100122.39;2226083;80;21250;-84
2021/03/29 02:44:35;;;;;;;49.80;25.70;;;;;;;4.50;61.50;100130.34;2226271;80;21139;-83
2021/03/29 02:47:36;;;;;;;46.48;23.75;;;;;;;4.54;61.62;100126.58;2226349;80;21698;-84
2021/03/29 02:50:38;;;;;;;44.83;22.50;;;;;;;4.56;61.70;100129.89;2226082;80;21306;-84
2021/03/29 02:53:40;;;;;;;52.48;25.88;;;;;;;4.58;61.53;100134.17;2226352;80;21261;-83
2021/03/29 02:56:41;;;;;;;46.05;23.30;;;;;;;4.61;61.56;100134.77;2226183;80;21286;-84
2021/03/29 02:59:43;;;;;;;51.13;24.25;;;;;;;4.63;61.63;100143.27;2226172;80;21705;-83
2021/03/29 03:02:44;;;;;;;44.23;23.05;;;;;;;4.67;61.58;100149.92;2226239;80;21185;-83
2021/03/29 03:05:46;;;;;;;47.17;24.00;;;;;;;4.68;61.59;100150.28;2226163;80;21297;-84
2021/03/29 03:08:48;;;;;;;45.95;23.83;;;;;;;4.70;61.63;100144.52;2226166;80;21164;-83
2021/03/29 03:11:50;;;;;;;44.03;24.52;;;;;;;4.72;61.71;100141.33;2226353;80;21273;-83
2021/03/29 03:14:51;;;;;;;48.78;25.82;;;;;;;4.74;61.83;100142.05;2230025;79;21131;-83
2021/03/29 03:17:53;;;;;;;52.83;24.43;;;;;;;4.78;61.76;100140.91;2243791;79;21091;-84
2021/03/29 03:20:54;;;;;;;43.98;24.07;;;;;;;4.80;61.62;100135.61;2244077;79;21159;-84
2021/03/29 03:23:56;;;;;;;53.00;27.05;;;;;;;4.79;61.58;100142.56;2243561;79;21609;-84
2021/03/29 03:26:57;;;;;;;46.65;23.92;;;;;;;4.79;61.74;100136.08;2243476;79;21705;-84
2021/03/29 03:29:59;;;;;;;49.35;25.12;;;;;;;4.80;61.82;100139.03;2243397;79;21166;-84
2021/03/29 03:33:01;;;;;;;50.05;23.95;;;;;;;4.81;61.78;100138.09;2244030;79;21273;-84
2021/03/29 03:36:02;;;;;;;55.70;26.62;;;;;;;4.80;61.70;100140.33;2243679;79;21347;-84
2021/03/29 03:39:04;;;;;;;48.70;24.10;;;;;;;4.81;61.79;100141.98;2243491;79;21775;-84
2021/03/29 03:42:05;;;;;;;42.43;24.05;;;;;;;4.81;61.81;100136.80;2243464;79;21657;-84
2021/03/29 03:45:08;;;;;;;50.30;26.80;;;;;;;4.77;61.78;100139.73;2243597;79;21543;-84
2021/03/29 03:48:10;;;;;;;45.48;23.52;;;;;;;4.76;61.83;100140.67;2243615;79;21301;-84
2021/03/29 03:51:12;;;;;;;53.17;26.17;;;;;;;4.77;61.84;100143.62;2243367;79;21182;-84
2021/03/29 03:54:13;;;;;;;65.62;28.15;;;;;;;4.79;61.97;100141.27;2243428;79;21126;-84
2021/03/29 03:57:14;;;;;;;48.45;26.82;;;;;;;4.84;61.99;100139.63;2243358;79;21154;-84
2021/03/29 04:00:16;;;;;;;51.00;26.02;;;;;;;4.85;62.06;100140.02;2243573;79;21165;-84
2021/03/29 04:03:18;;;;;;;48.15;26.15;;;;;;;4.89;62.10;100145.81;2243594;79;21154;-84
2021/03/29 04:06:20;;;;;;;49.20;24.27;;;;;;;4.92;62.18;100149.48;2243814;79;21709;-84
2021/03/29 04:09:24;;;;;;;45.70;24.85;;;;;;;4.92;61.83;100146.88;2243523;79;21183;-84
2021/03/29 04:12:25;;;;;;;40.43;22.25;;;;;;;4.91;61.88;100149.95;2243800;79;21249;-84
2021/03/29 04:15:27;;;;;;;41.73;24.12;;;;;;;4.89;62.32;100149.23;2227462;79;21158;-84
2021/03/29 04:18:28;;;;;;;45.40;23.05;;;;;;;4.88;62.34;100146.28;2199825;81;21304;-84
2021/03/29 04:21:30;;;;;;;50.80;24.30;;;;;;;4.88;62.55;100149.34;2193107;81;21328;-84
2021/03/29 04:24:31;;;;;;;46.02;26.05;;;;;;;4.85;62.78;100151.23;2193070;80;21154;-84
2021/03/29 04:27:33;;;;;;;58.73;27.73;;;;;;;4.89;62.79;100148.41;2199468;81;21296;-84
2021/03/29 04:30:34;;;;;;;44.03;23.75;;;;;;;4.94;63.24;100152.78;2192706;81;21175;-84
2021/03/29 04:33:36;;;;;;;42.85;21.82;;;;;;;4.99;63.32;100156.73;2193065;81;21135;-84
2021/03/29 04:36:37;;;;;;;43.45;25.08;;;;;;;4.91;63.11;100153.84;2199775;81;21296;-83
2021/03/29 04:39:39;;;;;;;57.62;30.85;;;;;;;4.88;63.57;100157.97;2159330;81;21278;-84
2021/03/29 04:42:40;;;;;;;46.40;27.22;;;;;;;4.86;63.91;100152.06;2197202;81;21551;-84
2021/03/29 04:45:42;;;;;;;59.27;30.75;;;;;;;4.83;64.14;100152.25;2184544;81;21710;-84
2021/03/29 04:48:43;;;;;;;46.23;25.32;;;;;;;4.80;64.16;100150.71;2156939;82;21301;-82
2021/03/29 04:51:45;;;;;;;42.15;23.77;;;;;;;4.80;64.29;100142.09;2156976;82;21281;-83
2021/03/29 04:54:46;;;;;;;49.03;25.17;;;;;;;4.75;64.39;100149.36;2156704;82;21797;-83
2021/03/29 04:57:48;;;;;;;54.75;27.45;;;;;;;4.73;64.85;100155.14;2156452;82;21167;-83
2021/03/29 05:00:50;;;;;;;56.20;29.15;;;;;;;4.69;65.38;100154.53;2157028;82;21306;-83
2021/03/29 05:03:51;;;;;;;55.60;28.77;;;;;;;4.70;65.04;100147.11;2157054;82;21722;-82
2021/03/29 05:06:53;;;;;;;51.15;26.75;;;;;;;4.75;65.22;100142.41;2157019;82;21330;-83
2021/03/29 05:09:54;;;;;;;56.30;28.38;;;;;;;4.78;65.37;100143.52;2156676;82;21175;-82
2021/03/29 05:12:56;;;;;;;48.15;26.27;;;;;;;4.83;65.50;100141.87;2156876;82;21603;-82
2021/03/29 05:15:58;;;;;;;47.88;26.97;;;;;;;4.88;66.11;100142.39;2182542;80;21285;-85
2021/03/29 05:19:00;;;;;;;53.08;26.97;;;;;;;4.92;66.21;100141.22;2222556;80;21281;-84
2021/03/29 05:22:01;;;;;;;41.73;24.95;;;;;;;5.01;66.30;100147.06;2222272;80;21297;-82
2021/03/29 05:25:03;;;;;;;44.33;23.98;;;;;;;5.03;66.10;100145.64;2222343;80;21277;-83
2021/03/29 05:28:04;;;;;;;44.30;24.12;;;;;;;5.08;66.28;100144.86;2222434;80;21749;-83
2021/03/29 05:31:08;;;;;;;43.28;23.45;;;;;;;5.09;66.33;100160.80;2222719;80;21305;-84
2021/03/29 05:34:11;;;;;;;43.02;23.25;;;;;;;5.12;66.22;100161.42;2222478;80;21279;-85
2021/03/29 05:37:12;;;;;;;49.10;26.07;;;;;;;5.14;66.21;100162.14;2222479;80;21309;-83
2021/03/29 05:40:17;;;;;;;47.88;25.72;;;;;;;5.24;66.01;100166.67;2222532;80;21159;-86
2021/03/29 05:43:18;;;;;;;44.27;25.85;;;;;;;5.37;65.98;100167.44;2222318;80;21265;-84
2021/03/29 05:46:19;;;;;;;41.95;24.63;;;;;;;5.45;65.83;100174.20;2222191;80;21138;-84
2021/03/29 05:49:21;;;;;;;42.55;25.40;;;;;;;5.55;65.74;100173.89;2222423;80;21678;-84
2021/03/29 05:52:22;;;;;;;44.67;24.85;;;;;;;5.68;65.75;100175.14;2222281;80;21170;-84
2021/03/29 05:55:30;;;;;;;43.08;23.77;;;;;;;5.77;65.54;100170.56;2222124;80;21476;-81
2021/03/29 05:58:35;;;;;;;43.95;22.82;;;;;;;5.83;65.42;100170.56;2222370;80;21595;-82
2021/03/29 06:01:36;;;;;;;43.30;23.22;;;;;;;5.89;65.61;100166.22;2222421;80;21301;-82
2021/03/29 06:04:37;;;;;;;43.10;23.35;;;;;;;5.93;65.60;100168.48;2222285;80;21253;-82
2021/03/29 06:07:39;;;;;;;42.20;21.77;;;;;;;5.96;65.63;100168.28;2222289;80;21147;-81
2021/03/29 06:10:40;;;;;;;38.58;21.87;;;;;;;5.93;65.63;100161.98;2222589;80;21325;-82
2021/03/29 06:13:42;;;;;;;45.10;23.95;;;;;;;5.92;65.85;100168.61;2222773;80;21325;-81
2021/03/29 06:16:44;;;;;;;40.50;22.42;;;;;;;5.88;65.61;100166.69;2201457;80;21204;-81
2021/03/29 06:19:45;;;;;;;43.92;22.35;;;;;;;5.90;65.87;100173.93;2185854;81;21163;-82
2021/03/29 06:22:47;;;;;;;42.98;23.07;;;;;;;5.93;65.60;100162.46;2186112;81;21143;-82
2021/03/29 06:25:49;;;;;;;42.35;23.42;;;;;;;5.98;65.72;100161.19;2186208;81;21168;-81
2021/03/29 06:28:50;;;;;;;48.15;27.20;;;;;;;6.04;65.66;100164.28;2185965;81;21635;-82
2021/03/29 06:31:52;;;;;;;37.17;22.32;;;;;;;6.15;65.77;100160.40;2186220;81;21171;-82
2021/03/29 06:34:54;;;;;;;44.27;25.60;;;;;;;6.26;65.62;100157.33;2185992;81;21171;-85
2021/03/29 06:37:55;;;;;;;46.70;24.60;;;;;;;6.39;65.55;100161.11;2185823;81;21131;-82
2021/03/29 06:40:57;;;;;;;42.90;22.60;;;;;;;6.59;65.61;100166.11;2185948;81;21144;-82
2021/03/29 06:43:59;;;;;;;39.95;22.67;;;;;;;6.79;65.22;100155.44;2185834;81;21754;-81
2021/03/29 06:47:04;;;;;;;36.33;20.90;;;;;;;6.94;65.22;100159.89;2185661;81;21298;-82
2021/03/29 06:50:06;;;;;;;43.23;23.32;;;;;;;7.15;65.04;100158.22;2185756;81;21294;-83
2021/03/29 06:53:07;;;;;;;42.30;23.95;;;;;;;7.38;65.00;100154.57;2186049;81;21144;-84
2021/03/29 06:56:09;;;;;;;42.00;24.95;;;;;;;7.58;64.85;100164.67;2185908;81;21140;-83
2021/03/29 06:59:11;;;;;;;38.78;21.93;;;;;;;7.75;64.69;100159.87;2186010;81;21179;-83
2021/03/29 07:02:13;;;;;;;39.75;21.97;;;;;;;7.88;64.64;100153.53;2186065;81;21140;-83
2021/03/29 07:05:15;;;;;;;38.85;21.05;;;;;;;7.95;64.35;100157.73;2185845;81;21184;-85
2021/03/29 07:08:16;;;;;;;37.78;22.62;;;;;;;7.97;64.20;100161.89;2185979;81;21183;-81
2021/03/29 07:11:18;;;;;;;34.30;20.90;;;;;;;7.95;63.97;100166.41;2185935;81;21140;-83
2021/03/29 07:14:22;;;;;;;42.60;21.95;;;;;;;7.91;64.12;100165.48;2186140;81;21159;-83
2021/03/29 07:17:24;;;;;;;42.15;21.87;;;;;;;7.86;64.14;100173.70;2190066;80;21627;-86
2021/03/29 07:20:26;;;;;;;39.25;22.90;;;;;;;7.88;64.23;100167.05;2134260;83;21304;-90
2021/03/29 07:23:30;;;;;;;33.90;20.97;;;;;;;7.88;64.26;100174.39;2198046;81;21738;-86
2021/03/29 07:26:32;;;;;;;33.38;19.48;;;;;;;7.87;64.20;100175.34;2198045;81;21333;-83
2021/03/29 07:29:37;;;;;;;36.80;21.42;;;;;;;7.92;64.04;100174.95;2198706;81;21686;-86
2021/03/29 07:32:37;;;;;;;39.18;19.75;;;;;;;8.01;64.13;100168.15;2198142;81;21266;-85
2021/03/29 07:35:42;;;;;;;33.18;20.08;;;;;;;8.17;63.99;100171.13;2179091;81;21215;-86
2021/03/29 07:39:06;;;;;;;;;;;;;;;;;;;;;
2021/03/29 07:42:04;;;;;;;40.08;22.77;;;;;;;8.52;63.62;100172.11;2195588;81;21794;-84
2021/03/29 07:45:10;;;;;;;36.63;19.62;;;;;;;8.68;63.73;100176.34;2198323;81;21298;-87
2021/03/29 07:48:11;;;;;;;32.95;18.25;;;;;;;8.85;63.23;100177.50;2198628;81;21286;-84
2021/03/29 07:51:13;;;;;;;37.67;19.95;;;;;;;8.96;62.93;100183.95;2198199;81;21124;-82
2021/03/29 07:54:15;;;;;;;30.80;18.82;;;;;;;9.11;62.80;100186.52;2197804;81;21159;-84
2021/03/29 07:57:19;;;;;;;27.73;16.57;;;;;;;9.28;62.71;100183.73;2198049;81;21274;-84
2021/03/29 08:00:21;;;;;;;35.92;19.70;;;;;;;9.48;62.47;100181.12;2198410;81;21286;-82
2021/03/29 08:03:22;;;;;;;32.50;17.17;;;;;;;9.69;62.02;100183.12;2198363;81;21313;-83
2021/03/29 08:06:24;;;;;;;27.55;17.12;;;;;;;9.94;61.78;100185.66;2198521;81;21180;-87
2021/03/29 08:09:26;;;;;;;32.95;17.23;;;;;;;10.21;61.45;100179.69;2197834;81;21314;-88
2021/03/29 08:12:27;;;;;;;25.15;16.25;;;;;;;10.44;60.81;100181.05;2198230;81;21151;-86
2021/03/29 08:15:29;;;;;;;33.30;17.98;;;;;;;10.65;60.56;100185.23;2198257;81;21289;-84
2021/03/29 08:18:31;;;;;;;30.10;16.95;;;;;;;10.82;60.23;100187.92;2212730;80;21623;-84
2021/03/29 08:21:32;;;;;;;31.45;16.30;;;;;;;11.01;59.30;100186.99;2213039;80;21158;-85
2021/03/29 08:24:34;;;;;;;28.98;16.97;;;;;;;11.21;59.25;100188.19;2213021;80;21167;-83
2021/03/29 08:27:35;;;;;;;28.62;18.12;;;;;;;11.41;59.02;100185.77;2222191;78;21641;-83
2021/03/29 08:30:37;;;;;;;36.53;19.82;;;;;;;11.67;58.97;100179.28;2237270;78;21268;-82
2021/03/29 08:33:38;;;;;;;27.80;16.95;;;;;;;11.98;58.57;100173.19;2239966;78;21733;-84
2021/03/29 08:36:40;;;;;;;36.35;20.20;;;;;;;12.17;57.50;100168.23;2254587;78;21891;-83
2021/03/29 08:39:42;;;;;;;34.20;17.77;;;;;;;12.35;57.03;100169.00;2243056;79;21273;-83
2021/03/29 08:42:43;;;;;;;36.40;20.50;;;;;;;12.48;56.37;100165.94;2263286;78;21289;-84
2021/03/29 08:45:46;;;;;;;28.92;16.07;;;;;;;12.63;56.50;100170.13;2262452;78;21262;-83
2021/03/29 08:48:47;;;;;;;28.87;14.38;;;;;;;12.87;56.28;100162.81;2258852;78;21297;-82
2021/03/29 08:51:49;;;;;;;27.05;13.88;;;;;;;13.03;55.00;100164.19;2260293;78;21114;-82
2021/03/29 08:54:50;;;;;;;23.02;13.03;;;;;;;13.20;55.07;100166.40;2256388;78;21339;-83
2021/03/29 08:57:51;;;;;;;22.65;14.07;;;;;;;13.35;54.31;100154.27;2228555;80;22278;-82
2021/03/29 09:00:54;;;;;;;26.50;13.50;;;;;;;13.63;54.03;100156.92;2237837;78;21760;-83
2021/03/29 09:04:04;;;;;;;18.67;12.45;;;;;;;14.00;52.55;100146.88;2227932;79;21563;-78
2021/03/29 09:07:05;;;;;;;19.67;12.55;;;;;;;14.00;52.55;100146.88;2219347;79;21242;-82
2021/03/29 09:10:07;;;;;;;19.02;11.70;;;;;;;14.18;52.10;100165.44;2210588;79;21269;-83
2021/03/29 09:13:08;;;;;;;22.25;12.40;;;;;;;14.29;52.17;100168.71;2199278;80;21596;-83
2021/03/29 09:16:09;;;;;;;20.17;12.40;;;;;;;14.44;51.55;100162.55;2209606;79;21266;-83
2021/03/29 09:19:11;;;;;;;21.15;12.63;;;;;;;14.57;50.96;100158.12;2208113;80;21682;-82
2021/03/29 09:22:12;;;;;;;17.42;11.57;;;;;;;14.63;50.87;100158.77;2186657;80;21620;-81
2021/03/29 09:25:14;;;;;;;21.85;12.40;;;;;;;14.70;49.79;100162.34;2216791;80;21745;-82
2021/03/29 09:28:19;;;;;;;19.15;12.33;;;;;;;14.78;49.61;100153.58;2213043;79;21182;-82
2021/03/29 09:31:21;;;;;;;20.48;11.00;;;;;;;14.89;48.75;100148.41;2166060;82;21626;-83
2021/03/29 09:34:23;;;;;;;18.02;10.53;;;;;;;15.02;47.51;100151.33;2191171;81;21583;-83
2021/03/29 09:37:24;;;;;;;20.20;11.43;;;;;;;15.17;47.89;100148.75;2207233;80;21554;-83
2021/03/29 09:40:26;;;;;;;18.60;10.93;;;;;;;15.33;47.88;100144.70;2200966;80;21182;-84
2021/03/29 09:43:27;;;;;;;16.15;11.08;;;;;;;15.47;46.81;100143.95;2196451;80;21293;-83
2021/03/29 09:46:28;;;;;;;18.90;12.65;;;;;;;15.60;46.98;100148.16;2204318;80;21122;-84
2021/03/29 09:49:30;;;;;;;21.87;12.15;;;;;;;15.72;46.50;100145.91;2208849;80;21137;-84
2021/03/29 09:52:31;;;;;;;19.82;11.57;;;;;;;15.80;46.67;100141.87;2201091;80;21136;-84
2021/03/29 09:55:33;;;;;;;20.60;11.25;;;;;;;15.93;46.54;100144.75;2199534;80;21155;-84
2021/03/29 09:58:36;;;;;;;17.57;9.85;;;;;;;16.08;45.43;100146.58;2212322;80;21144;-85
2021/03/29 10:01:37;;;;;;;13.70;9.23;;;;;;;16.14;44.90;100142.72;2172549;81;21685;-83
2021/03/29 10:04:39;;;;;;;15.38;8.80;;;;;;;16.14;43.88;100145.36;2179338;81;21281;-84
2021/03/29 10:07:40;;;;;;;16.67;10.43;;;;;;;16.18;44.36;100147.12;2195746;80;21309;-84
2021/03/29 10:10:42;;;;;;;15.13;8.75;;;;;;;16.13;43.76;100145.05;2192030;80;21179;-84
2021/03/29 10:13:43;;;;;;;13.35;7.55;;;;;;;16.10;43.60;100143.28;2182910;80;21686;-84
2021/03/29 10:16:45;;;;;;;10.93;7.20;;;;;;;16.04;44.00;100143.48;2188058;81;21317;-84
2021/03/29 10:19:46;;;;;;;14.38;8.28;;;;;;;16.09;43.38;100141.61;2198091;80;21143;-83
2021/03/29 10:22:47;;;;;;;16.57;8.80;;;;;;;16.07;41.87;100137.02;2200522;80;21577;-85
2021/03/29 10:25:49;;;;;;;23.55;10.23;;;;;;;16.05;42.75;100139.02;2230544;80;21126;-84
2021/03/29 10:28:50;;;;;;;12.75;7.78;;;;;;;16.05;43.14;100140.34;2243169;79;21174;-85
2021/03/29 10:31:52;;;;;;;15.10;9.05;;;;;;;16.04;42.35;100137.38;2219486;79;21147;-84
2021/03/29 10:34:56;;;;;;;16.97;8.95;;;;;;;15.96;42.82;100144.88;2218502;80;21260;-86
2021/03/29 10:37:57;;;;;;;16.55;9.23;;;;;;;15.86;42.28;100146.95;2229142;80;21256;-85
2021/03/29 10:40:59;;;;;;;18.48;8.75;;;;;;;15.84;42.09;100137.90;2197988;80;21705;-87
2021/03/29 10:44:00;;;;;;;14.13;7.83;;;;;;;15.80;42.33;100135.27;2208063;80;21320;-87
2021/03/29 10:47:02;;;;;;;13.85;8.13;;;;;;;15.88;42.21;100139.67;2199608;80;21268;-87
2021/03/29 10:50:03;;;;;;;16.02;8.23;;;;;;;16.00;42.51;100132.97;2196190;80;21110;-85
2021/03/29 10:53:04;;;;;;;12.45;7.42;;;;;;;16.07;42.39;100131.22;2206668;80;21752;-86
2021/03/29 10:56:06;;;;;;;19.00;10.18;;;;;;;16.11;42.06;100132.52;2212715;80;21615;-85
2021/03/29 10:59:07;;;;;;;19.70;9.53;;;;;;;16.09;41.81;100141.61;2218929;80;21244;-86
2021/03/29 11:02:09;;;;;;;14.70;8.95;;;;;;;16.03;41.79;100142.34;2231338;79;21276;-86
2021/03/29 11:05:12;;;;;;;15.10;10.05;;;;;;;15.94;42.02;100144.24;2230706;80;21242;-85
2021/03/29 11:08:15;;;;;;;17.82;11.03;;;;;;;15.82;41.78;100144.36;2244179;79;21701;-86
2021/03/29 11:11:18;;;;;;;19.57;9.70;;;;;;;15.64;41.42;100145.50;2243970;79;21274;-86
2021/03/29 11:14:20;;;;;;;18.07;9.70;;;;;;;15.49;41.84;100144.59;2242380;79;21095;-86
2021/03/29 11:17:25;;;;;;;17.35;8.68;;;;;;;15.44;41.89;100146.92;2239122;79;21123;-86
2021/03/29 11:20:24;;;;;;;17.57;9.23;;;;;;;15.36;41.59;100147.83;2226112;80;21302;-85
2021/03/29 11:23:26;;;;;;;12.68;7.58;;;;;;;15.22;41.46;100147.24;2224053;80;21282;-85
2021/03/29 11:26:27;;;;;;;15.78;7.47;;;;;;;15.05;41.42;100149.66;2225818;79;21124;-85
2021/03/29 11:29:29;;;;;;;12.95;6.40;;;;;;;14.88;41.48;100146.28;2228737;79;21301;-86
2021/03/29 11:32:31;;;;;;;11.88;7.00;;;;;;;14.81;41.93;100146.63;2226658;80;21286;-86
2021/03/29 11:35:32;;;;;;;13.75;6.83;;;;;;;14.71;41.48;100143.39;2224321;79;21579;-85
2021/03/29 11:38:37;;;;;;;12.03;7.62;;;;;;;14.60;42.06;100155.63;2204629;80;22215;-85
2021/03/29 11:41:37;;;;;;;13.30;7.35;;;;;;;14.53;42.46;100144.94;2209511;80;21254;-85
2021/03/29 11:44:38;;;;;;;14.28;8.05;;;;;;;14.51;42.52;100148.24;2224949;79;21135;-86
2021/03/29 11:47:40;;;;;;;13.45;8.15;;;;;;;14.52;42.75;100152.52;2228238;79;21169;-85
2021/03/29 11:50:41;;;;;;;11.25;7.55;;;;;;;14.54;42.86;100149.71;2227574;80;21801;-86
2021/03/29 11:53:43;;;;;;;17.15;7.17;;;;;;;14.58;42.89;100142.63;2223902;79;21711;-86
2021/03/29 11:56:44;;;;;;;19.07;8.68;;;;;;;14.76;42.98;100149.80;2224782;79;21753;-86
2021/03/29 11:59:51;;;;;;;14.10;8.48;;;;;;;14.76;42.98;100149.80;2228760;80;21119;-86
2021/03/29 12:02:56;;;;;;;12.05;6.80;;;;;;;14.76;41.85;100146.34;2229516;80;21270;-86
2021/03/29 12:05:57;;;;;;;15.93;9.43;;;;;;;14.73;42.69;100142.25;2199026;80;21136;-85
2021/03/29 12:09:01;;;;;;;18.92;9.25;;;;;;;14.67;42.85;100132.88;2224889;80;21321;-87
2021/03/29 12:12:04;;;;;;;20.32;9.98;;;;;;;14.71;42.79;100139.43;2229745;80;21273;-84
2021/03/29 12:15:05;;;;;;;19.00;9.23;;;;;;;14.71;42.77;100134.16;2228567;80;21135;-86
2021/03/29 12:18:10;;;;;;;23.60;13.05;;;;;;;14.65;43.16;100131.73;2234438;79;21153;-87
2021/03/29 12:21:10;;;;;;;28.38;13.08;;;;;;;14.69;43.19;100133.02;2209819;79;21116;-86
2021/03/29 12:24:13;;;;;;;19.20;10.98;;;;;;;14.75;43.49;100136.30;2238996;79;21139;-88
2021/03/29 12:27:15;;;;;;;19.77;10.82;;;;;;;14.86;43.67;100130.31;2243225;79;21197;-87
2021/03/29 12:30:16;;;;;;;13.80;8.35;;;;;;;14.91;43.69;100126.67;2226809;79;21142;-86
2021/03/29 12:33:18;;;;;;;18.00;9.38;;;;;;;15.01;43.74;100124.63;2229949;79;21288;-88
2021/03/29 12:36:20;;;;;;;15.13;8.68;;;;;;;15.12;43.93;100124.23;2205911;80;21270;-87
2021/03/29 12:39:27;;;;;;;14.85;8.48;;;;;;;15.22;43.58;100123.50;2248619;79;21702;-85
2021/03/29 12:42:26;;;;;;;18.67;8.35;;;;;;;15.33;43.80;100122.27;2257341;79;21138;-85
2021/03/29 12:45:29;;;;;;;12.13;8.25;;;;;;;15.38;43.85;100117.30;2258236;79;21619;-85
2021/03/29 12:48:31;;;;;;;13.25;6.75;;;;;;;15.47;43.96;100120.70;2258183;79;21203;-85
2021/03/29 12:51:32;;;;;;;13.45;6.83;;;;;;;15.48;43.80;100115.73;2230088;79;21154;-85
2021/03/29 12:54:34;;;;;;;13.43;8.20;;;;;;;15.45;44.15;100127.45;2203979;80;21729;-86
2021/03/29 12:57:36;;;;;;;14.63;7.08;;;;;;;15.36;44.51;100128.50;2243985;79;21612;-86
2021/03/29 13:00:38;;;;;;;9.58;6.17;;;;;;;15.31;44.62;100130.36;2243736;79;21722;-85
2021/03/29 13:03:42;;;;;;;14.83;8.83;;;;;;;15.26;44.61;100127.92;2243487;79;21268;-86
2021/03/29 13:06:49;;;;;;;17.00;8.20;;;;;;;15.17;45.07;100128.97;2243608;79;21582;-86
2021/03/29 13:09:51;;;;;;;11.85;6.45;;;;;;;14.99;45.33;100129.23;2244167;79;21154;-87
2021/03/29 13:12:51;;;;;;;13.95;7.22;;;;;;;14.89;45.82;100124.18;2245303;79;21253;-87
2021/03/29 13:15:52;;;;;;;11.35;6.80;;;;;;;14.80;46.58;100119.45;2244813;79;21297;-85
2021/03/29 13:18:54;;;;;;;10.90;6.35;;;;;;;14.75;46.87;100124.93;2243590;79;21159;-85
2021/03/29 13:21:55;;;;;;;11.28;6.20;;;;;;;14.73;47.42;100122.47;2202827;81;21272;-85
2021/03/29 13:24:56;;;;;;;9.95;6.22;;;;;;;14.71;47.85;100127.56;2196432;81;21171;-84
2021/03/29 13:27:58;;;;;;;9.20;5.80;;;;;;;14.73;47.96;100119.02;2196590;81;21181;-83
2021/03/29 13:30:59;;;;;;;10.03;6.35;;;;;;;14.72;47.90;100123.47;2196519;81;21284;-84
2021/03/29 13:34:02;;;;;;;9.78;6.00;;;;;;;14.75;48.66;100120.97;2196404;81;21324;-85
2021/03/29 13:37:04;;;;;;;11.63;6.10;;;;;;;14.85;48.96;100123.40;2196511;81;21182;-86
2021/03/29 13:40:05;;;;;;;12.58;6.65;;;;;;;14.91;49.31;100126.67;2196360;81;21288;-85
2021/03/29 13:43:07;;;;;;;13.28;6.67;;;;;;;14.90;48.92;100125.82;2196603;81;21289;-86
2021/03/29 13:46:09;;;;;;;13.83;7.97;;;;;;;14.70;48.84;100123.30;2196855;81;21316;-87
2021/03/29 13:49:12;;;;;;;12.58;6.65;;;;;;;14.55;49.22;100120.58;2197093;81;21354;-85
2021/03/29 13:52:14;;;;;;;12.35;7.53;;;;;;;14.51;49.76;100127.16;2192543;81;21697;-85
2021/03/29 13:55:17;;;;;;;11.03;6.75;;;;;;;14.48;50.06;100122.23;2196900;81;21313;-85